sensor_id;sensor_type;location;lat;lon;timestamp;P1;durP1;ratioP1;P2;durP2;ratioP2
76296;SDS011;65104;52.994;6.552;2023-06-22T00:01:27;26.05;;;14.73;;
76296;SDS011;65104;52.994;6.552;2023-06-22T00:03:53;25.00;;;14.77;;
76296;SDS011;65104;52.994;6.552;2023-06-22T00:06:18;24.88;;;14.15;;
76296;SDS011;65104;52.994;6.552;2023-06-22T00:08:44;24.52;;;14.90;;
76296;SDS011;65104;52.994;6.552;2023-06-22T00:11:09;23.13;;;15.23;;
76296;SDS011;65104;52.994;6.552;2023-06-22T00:13:35;19.38;;;13.68;;
76296;SDS011;65104;52.994;6.552;2023-06-22T00:16:01;22.33;;;13.55;;
76296;SDS011;65104;52.994;6.552;2023-06-22T00:18:26;20.92;;;12.85;;
76296;SDS011;65104;52.994;6.552;2023-06-22T00:20:53;25.63;;;14.55;;
76296;SDS011;65104;52.994;6.552;2023-06-22T00:23:22;21.33;;;13.88;;
76296;SDS011;65104;52.994;6.552;2023-06-22T00:25:48;22.80;;;14.57;;
76296;SDS011;65104;52.994;6.552;2023-06-22T00:28:14;21.27;;;13.57;;
76296;SDS011;65104;52.994;6.552;2023-06-22T00:30:39;23.35;;;15.07;;
76296;SDS011;65104;52.994;6.552;2023-06-22T00:33:08;24.95;;;14.82;;
76296;SDS011;65104;52.994;6.552;2023-06-22T00:35:33;24.08;;;14.73;;
76296;SDS011;65104;52.994;6.552;2023-06-22T00:37:59;19.85;;;13.50;;
76296;SDS011;65104;52.994;6.552;2023-06-22T00:40:32;23.95;;;15.63;;
76296;SDS011;65104;52.994;6.552;2023-06-22T00:42:58;23.30;;;13.77;;
76296;SDS011;65104;52.994;6.552;2023-06-22T00:45:24;19.88;;;13.60;;
76296;SDS011;65104;52.994;6.552;2023-06-22T00:47:53;25.63;;;15.18;;
76296;SDS011;65104;52.994;6.552;2023-06-22T00:50:21;21.23;;;13.35;;
76296;SDS011;65104;52.994;6.552;2023-06-22T00:52:51;21.83;;;14.15;;
76296;SDS011;65104;52.994;6.552;2023-06-22T00:55:21;24.90;;;15.65;;
76296;SDS011;65104;52.994;6.552;2023-06-22T00:57:48;22.75;;;14.77;;
76296;SDS011;65104;52.994;6.552;2023-06-22T01:00:17;24.75;;;14.90;;
76296;SDS011;65104;52.994;6.552;2023-06-22T01:02:45;24.30;;;14.13;;
76296;SDS011;65104;52.994;6.552;2023-06-22T01:05:14;22.27;;;14.13;;
76296;SDS011;65104;52.994;6.552;2023-06-22T01:13:02;29.80;;;16.67;;
76296;SDS011;65104;52.994;6.552;2023-06-22T01:15:37;30.95;;;17.77;;
76296;SDS011;65104;52.994;6.552;2023-06-22T01:18:11;25.35;;;17.08;;
76296;SDS011;65104;52.994;6.552;2023-06-22T01:20:38;24.63;;;15.60;;
76296;SDS011;65104;52.994;6.552;2023-06-22T01:25:46;28.27;;;16.35;;
76296;SDS011;65104;52.994;6.552;2023-06-22T01:31:16;25.80;;;15.75;;
76296;SDS011;65104;52.994;6.552;2023-06-22T01:33:44;23.67;;;14.88;;
76296;SDS011;65104;52.994;6.552;2023-06-22T01:36:16;27.67;;;15.93;;
76296;SDS011;65104;52.994;6.552;2023-06-22T01:38:42;26.63;;;15.90;;
76296;SDS011;65104;52.994;6.552;2023-06-22T01:41:09;24.58;;;16.00;;
76296;SDS011;65104;52.994;6.552;2023-06-22T01:43:35;25.00;;;15.35;;
76296;SDS011;65104;52.994;6.552;2023-06-22T01:46:02;24.02;;;14.88;;
76296;SDS011;65104;52.994;6.552;2023-06-22T01:48:28;28.27;;;16.63;;
76296;SDS011;65104;52.994;6.552;2023-06-22T01:50:54;27.67;;;16.38;;
76296;SDS011;65104;52.994;6.552;2023-06-22T01:53:21;22.73;;;15.50;;
76296;SDS011;65104;52.994;6.552;2023-06-22T01:55:47;27.73;;;16.63;;
76296;SDS011;65104;52.994;6.552;2023-06-22T01:58:13;27.17;;;15.50;;
76296;SDS011;65104;52.994;6.552;2023-06-22T02:00:44;24.95;;;15.75;;
76296;SDS011;65104;52.994;6.552;2023-06-22T02:03:19;29.85;;;16.13;;
76296;SDS011;65104;52.994;6.552;2023-06-22T02:05:52;26.38;;;16.35;;
76296;SDS011;65104;52.994;6.552;2023-06-22T02:08:25;22.55;;;15.45;;
76296;SDS011;65104;52.994;6.552;2023-06-22T02:10:54;29.70;;;18.42;;
76296;SDS011;65104;52.994;6.552;2023-06-22T02:13:23;27.75;;;16.33;;
76296;SDS011;65104;52.994;6.552;2023-06-22T02:15:49;32.60;;;18.83;;
76296;SDS011;65104;52.994;6.552;2023-06-22T02:18:16;27.42;;;15.77;;
76296;SDS011;65104;52.994;6.552;2023-06-22T02:20:41;26.92;;;17.00;;
76296;SDS011;65104;52.994;6.552;2023-06-22T02:23:07;26.60;;;16.30;;
76296;SDS011;65104;52.994;6.552;2023-06-22T02:25:34;27.15;;;17.98;;
76296;SDS011;65104;52.994;6.552;2023-06-22T02:28:00;33.53;;;17.83;;
76296;SDS011;65104;52.994;6.552;2023-06-22T02:30:26;25.77;;;16.15;;
76296;SDS011;65104;52.994;6.552;2023-06-22T02:32:52;23.95;;;14.77;;
76296;SDS011;65104;52.994;6.552;2023-06-22T02:35:27;26.75;;;15.23;;
76296;SDS011;65104;52.994;6.552;2023-06-22T02:38:00;26.55;;;16.75;;
76296;SDS011;65104;52.994;6.552;2023-06-22T02:40:26;28.83;;;18.35;;
76296;SDS011;65104;52.994;6.552;2023-06-22T02:42:52;30.08;;;16.95;;
76296;SDS011;65104;52.994;6.552;2023-06-22T02:45:18;24.58;;;16.13;;
76296;SDS011;65104;52.994;6.552;2023-06-22T02:47:43;27.40;;;16.38;;
76296;SDS011;65104;52.994;6.552;2023-06-22T02:50:09;27.00;;;17.83;;
76296;SDS011;65104;52.994;6.552;2023-06-22T02:52:35;29.20;;;18.20;;
76296;SDS011;65104;52.994;6.552;2023-06-22T02:55:00;25.70;;;15.77;;
76296;SDS011;65104;52.994;6.552;2023-06-22T02:57:26;30.05;;;17.13;;
76296;SDS011;65104;52.994;6.552;2023-06-22T02:59:51;24.92;;;15.57;;
76296;SDS011;65104;52.994;6.552;2023-06-22T03:02:16;26.52;;;16.60;;
76296;SDS011;65104;52.994;6.552;2023-06-22T03:04:43;23.73;;;14.85;;
76296;SDS011;65104;52.994;6.552;2023-06-22T03:07:09;26.85;;;17.08;;
76296;SDS011;65104;52.994;6.552;2023-06-22T03:09:34;27.17;;;16.55;;
76296;SDS011;65104;52.994;6.552;2023-06-22T03:11:59;25.40;;;16.02;;
76296;SDS011;65104;52.994;6.552;2023-06-22T03:14:25;30.15;;;17.85;;
76296;SDS011;65104;52.994;6.552;2023-06-22T03:16:51;30.17;;;19.45;;
76296;SDS011;65104;52.994;6.552;2023-06-22T03:19:16;30.42;;;18.90;;
76296;SDS011;65104;52.994;6.552;2023-06-22T03:21:42;26.15;;;18.77;;
76296;SDS011;65104;52.994;6.552;2023-06-22T03:24:07;28.80;;;17.75;;
76296;SDS011;65104;52.994;6.552;2023-06-22T03:26:33;28.48;;;16.88;;
76296;SDS011;65104;52.994;6.552;2023-06-22T03:28:59;28.13;;;18.20;;
76296;SDS011;65104;52.994;6.552;2023-06-22T03:31:25;28.02;;;18.38;;
76296;SDS011;65104;52.994;6.552;2023-06-22T03:33:50;28.25;;;16.67;;
76296;SDS011;65104;52.994;6.552;2023-06-22T03:36:16;31.33;;;18.60;;
76296;SDS011;65104;52.994;6.552;2023-06-22T03:38:46;29.25;;;19.08;;
76296;SDS011;65104;52.994;6.552;2023-06-22T03:41:12;28.50;;;17.50;;
76296;SDS011;65104;52.994;6.552;2023-06-22T03:43:37;26.25;;;17.23;;
76296;SDS011;65104;52.994;6.552;2023-06-22T03:46:02;26.00;;;17.45;;
76296;SDS011;65104;52.994;6.552;2023-06-22T03:48:28;30.73;;;19.00;;
76296;SDS011;65104;52.994;6.552;2023-06-22T03:50:53;28.33;;;18.17;;
76296;SDS011;65104;52.994;6.552;2023-06-22T03:53:18;28.48;;;16.05;;
76296;SDS011;65104;52.994;6.552;2023-06-22T03:55:50;27.90;;;17.40;;
76296;SDS011;65104;52.994;6.552;2023-06-22T03:58:17;27.75;;;16.02;;
76296;SDS011;65104;52.994;6.552;2023-06-22T04:00:44;28.30;;;16.20;;
76296;SDS011;65104;52.994;6.552;2023-06-22T04:03:11;25.75;;;17.10;;
76296;SDS011;65104;52.994;6.552;2023-06-22T04:05:38;27.85;;;17.70;;
76296;SDS011;65104;52.994;6.552;2023-06-22T04:08:04;22.90;;;14.85;;
76296;SDS011;65104;52.994;6.552;2023-06-22T04:10:30;30.23;;;19.15;;
76296;SDS011;65104;52.994;6.552;2023-06-22T04:12:55;32.47;;;20.30;;
76296;SDS011;65104;52.994;6.552;2023-06-22T04:15:21;29.02;;;18.75;;
76296;SDS011;65104;52.994;6.552;2023-06-22T04:17:47;32.30;;;20.15;;
76296;SDS011;65104;52.994;6.552;2023-06-22T04:20:12;31.05;;;19.17;;
76296;SDS011;65104;52.994;6.552;2023-06-22T04:22:37;31.77;;;19.92;;
76296;SDS011;65104;52.994;6.552;2023-06-22T04:25:03;31.83;;;19.55;;
76296;SDS011;65104;52.994;6.552;2023-06-22T04:27:29;31.25;;;19.67;;
76296;SDS011;65104;52.994;6.552;2023-06-22T04:29:54;32.58;;;19.52;;
76296;SDS011;65104;52.994;6.552;2023-06-22T04:32:19;32.25;;;20.05;;
76296;SDS011;65104;52.994;6.552;2023-06-22T04:34:45;33.97;;;19.20;;
76296;SDS011;65104;52.994;6.552;2023-06-22T04:37:10;30.77;;;18.42;;
76296;SDS011;65104;52.994;6.552;2023-06-22T04:39:40;30.65;;;19.40;;
76296;SDS011;65104;52.994;6.552;2023-06-22T04:42:06;26.70;;;17.85;;
76296;SDS011;65104;52.994;6.552;2023-06-22T04:44:32;28.75;;;18.52;;
76296;SDS011;65104;52.994;6.552;2023-06-22T04:46:58;31.75;;;19.75;;
76296;SDS011;65104;52.994;6.552;2023-06-22T04:49:31;31.38;;;17.95;;
76296;SDS011;65104;52.994;6.552;2023-06-22T04:52:07;30.75;;;18.08;;
76296;SDS011;65104;52.994;6.552;2023-06-22T04:54:35;28.00;;;17.25;;
76296;SDS011;65104;52.994;6.552;2023-06-22T04:57:02;30.77;;;18.10;;
76296;SDS011;65104;52.994;6.552;2023-06-22T04:59:29;30.67;;;19.15;;
76296;SDS011;65104;52.994;6.552;2023-06-22T05:04:21;33.27;;;19.27;;
76296;SDS011;65104;52.994;6.552;2023-06-22T05:06:48;30.95;;;18.48;;
76296;SDS011;65104;52.994;6.552;2023-06-22T05:09:14;28.08;;;16.55;;
76296;SDS011;65104;52.994;6.552;2023-06-22T05:11:39;29.23;;;17.50;;
76296;SDS011;65104;52.994;6.552;2023-06-22T05:14:05;29.58;;;17.27;;
76296;SDS011;65104;52.994;6.552;2023-06-22T05:16:30;27.10;;;15.82;;
76296;SDS011;65104;52.994;6.552;2023-06-22T05:18:56;29.60;;;18.30;;
76296;SDS011;65104;52.994;6.552;2023-06-22T05:21:22;29.55;;;17.52;;
76296;SDS011;65104;52.994;6.552;2023-06-22T05:23:49;28.80;;;17.83;;
76296;SDS011;65104;52.994;6.552;2023-06-22T05:26:15;31.02;;;18.10;;
76296;SDS011;65104;52.994;6.552;2023-06-22T05:28:41;28.52;;;17.70;;
76296;SDS011;65104;52.994;6.552;2023-06-22T05:31:06;32.40;;;19.10;;
76296;SDS011;65104;52.994;6.552;2023-06-22T05:33:31;31.00;;;19.10;;
76296;SDS011;65104;52.994;6.552;2023-06-22T05:35:57;36.97;;;20.98;;
76296;SDS011;65104;52.994;6.552;2023-06-22T05:38:22;34.08;;;20.70;;
76296;SDS011;65104;52.994;6.552;2023-06-22T05:40:48;34.45;;;20.67;;
76296;SDS011;65104;52.994;6.552;2023-06-22T05:43:13;35.15;;;20.05;;
76296;SDS011;65104;52.994;6.552;2023-06-22T05:45:40;35.72;;;20.23;;
76296;SDS011;65104;52.994;6.552;2023-06-22T05:48:05;33.92;;;18.23;;
76296;SDS011;65104;52.994;6.552;2023-06-22T05:50:31;36.17;;;20.48;;
76296;SDS011;65104;52.994;6.552;2023-06-22T05:52:56;32.42;;;19.83;;
76296;SDS011;65104;52.994;6.552;2023-06-22T05:55:22;36.63;;;21.38;;
76296;SDS011;65104;52.994;6.552;2023-06-22T05:57:47;30.50;;;17.38;;
76296;SDS011;65104;52.994;6.552;2023-06-22T06:00:13;36.92;;;18.10;;
76296;SDS011;65104;52.994;6.552;2023-06-22T06:02:39;30.45;;;17.95;;
76296;SDS011;65104;52.994;6.552;2023-06-22T06:05:09;30.23;;;17.98;;
76296;SDS011;65104;52.994;6.552;2023-06-22T06:07:35;26.20;;;17.50;;
76296;SDS011;65104;52.994;6.552;2023-06-22T06:10:02;30.30;;;19.27;;
76296;SDS011;65104;52.994;6.552;2023-06-22T06:12:29;31.48;;;19.40;;
76296;SDS011;65104;52.994;6.552;2023-06-22T06:14:55;31.80;;;18.15;;
76296;SDS011;65104;52.994;6.552;2023-06-22T06:17:21;33.88;;;18.67;;
76296;SDS011;65104;52.994;6.552;2023-06-22T06:19:47;30.05;;;18.55;;
76296;SDS011;65104;52.994;6.552;2023-06-22T06:22:12;33.42;;;17.48;;
76296;SDS011;65104;52.994;6.552;2023-06-22T06:24:37;25.90;;;16.45;;
76296;SDS011;65104;52.994;6.552;2023-06-22T06:27:03;24.67;;;15.98;;
76296;SDS011;65104;52.994;6.552;2023-06-22T06:29:30;22.95;;;14.07;;
76296;SDS011;65104;52.994;6.552;2023-06-22T06:31:56;22.80;;;14.80;;
76296;SDS011;65104;52.994;6.552;2023-06-22T06:34:21;22.63;;;13.57;;
76296;SDS011;65104;52.994;6.552;2023-06-22T06:36:47;21.23;;;12.70;;
76296;SDS011;65104;52.994;6.552;2023-06-22T06:39:12;21.88;;;11.70;;
76296;SDS011;65104;52.994;6.552;2023-06-22T06:41:38;16.55;;;9.60;;
76296;SDS011;65104;52.994;6.552;2023-06-22T06:44:03;13.73;;;9.40;;
76296;SDS011;65104;52.994;6.552;2023-06-22T06:46:29;12.75;;;8.70;;
76296;SDS011;65104;52.994;6.552;2023-06-22T06:48:54;15.48;;;9.50;;
76296;SDS011;65104;52.994;6.552;2023-06-22T06:51:20;13.50;;;8.95;;
76296;SDS011;65104;52.994;6.552;2023-06-22T06:53:45;12.30;;;9.02;;
76296;SDS011;65104;52.994;6.552;2023-06-22T06:56:11;11.18;;;7.63;;
76296;SDS011;65104;52.994;6.552;2023-06-22T06:58:37;13.40;;;8.05;;
76296;SDS011;65104;52.994;6.552;2023-06-22T07:01:05;9.80;;;7.72;;
76296;SDS011;65104;52.994;6.552;2023-06-22T07:03:31;10.93;;;6.78;;
76296;SDS011;65104;52.994;6.552;2023-06-22T07:05:58;10.77;;;7.35;;
76296;SDS011;65104;52.994;6.552;2023-06-22T07:08:24;10.77;;;7.43;;
76296;SDS011;65104;52.994;6.552;2023-06-22T07:10:49;9.13;;;6.70;;
76296;SDS011;65104;52.994;6.552;2023-06-22T07:13:14;10.13;;;6.68;;
76296;SDS011;65104;52.994;6.552;2023-06-22T07:15:40;9.35;;;6.57;;
76296;SDS011;65104;52.994;6.552;2023-06-22T07:18:05;11.90;;;6.90;;
76296;SDS011;65104;52.994;6.552;2023-06-22T07:20:31;8.75;;;5.53;;
76296;SDS011;65104;52.994;6.552;2023-06-22T07:22:59;9.68;;;5.60;;
76296;SDS011;65104;52.994;6.552;2023-06-22T07:25:24;7.63;;;5.60;;
76296;SDS011;65104;52.994;6.552;2023-06-22T07:28:02;13.13;;;6.25;;
76296;SDS011;65104;52.994;6.552;2023-06-22T07:30:30;10.82;;;5.10;;
76296;SDS011;65104;52.994;6.552;2023-06-22T07:32:57;8.45;;;4.53;;
76296;SDS011;65104;52.994;6.552;2023-06-22T07:35:23;6.90;;;5.18;;
76296;SDS011;65104;52.994;6.552;2023-06-22T07:37:49;7.65;;;4.60;;
76296;SDS011;65104;52.994;6.552;2023-06-22T07:40:14;7.88;;;5.05;;
76296;SDS011;65104;52.994;6.552;2023-06-22T07:42:40;5.65;;;4.53;;
76296;SDS011;65104;52.994;6.552;2023-06-22T07:45:05;6.32;;;4.50;;
76296;SDS011;65104;52.994;6.552;2023-06-22T07:47:33;5.00;;;3.42;;
76296;SDS011;65104;52.994;6.552;2023-06-22T07:50:00;6.85;;;4.03;;
76296;SDS011;65104;52.994;6.552;2023-06-22T07:52:27;5.32;;;3.80;;
76296;SDS011;65104;52.994;6.552;2023-06-22T07:54:53;5.35;;;3.72;;
76296;SDS011;65104;52.994;6.552;2023-06-22T07:57:19;5.20;;;3.45;;
76296;SDS011;65104;52.994;6.552;2023-06-22T07:59:45;4.40;;;3.00;;
76296;SDS011;65104;52.994;6.552;2023-06-22T08:02:10;4.63;;;2.88;;
76296;SDS011;65104;52.994;6.552;2023-06-22T08:04:36;4.55;;;3.42;;
76296;SDS011;65104;52.994;6.552;2023-06-22T08:07:01;7.32;;;4.85;;
76296;SDS011;65104;52.994;6.552;2023-06-22T08:09:28;4.82;;;3.92;;
76296;SDS011;65104;52.994;6.552;2023-06-22T08:11:54;6.60;;;3.58;;
76296;SDS011;65104;52.994;6.552;2023-06-22T08:14:21;5.18;;;3.72;;
76296;SDS011;65104;52.994;6.552;2023-06-22T08:16:47;9.38;;;3.88;;
76296;SDS011;65104;52.994;6.552;2023-06-22T08:19:15;7.05;;;4.88;;
76296;SDS011;65104;52.994;6.552;2023-06-22T08:21:41;4.65;;;3.80;;
76296;SDS011;65104;52.994;6.552;2023-06-22T08:24:06;6.55;;;3.95;;
76296;SDS011;65104;52.994;6.552;2023-06-22T08:26:32;5.15;;;3.97;;
76296;SDS011;65104;52.994;6.552;2023-06-22T08:29:01;5.18;;;3.83;;
76296;SDS011;65104;52.994;6.552;2023-06-22T08:31:27;5.97;;;4.00;;
76296;SDS011;65104;52.994;6.552;2023-06-22T08:33:52;7.28;;;3.88;;
76296;SDS011;65104;52.994;6.552;2023-06-22T08:36:18;5.60;;;3.83;;
76296;SDS011;65104;52.994;6.552;2023-06-22T08:38:43;6.30;;;4.15;;
76296;SDS011;65104;52.994;6.552;2023-06-22T08:41:09;6.25;;;4.65;;
76296;SDS011;65104;52.994;6.552;2023-06-22T08:43:35;6.03;;;4.35;;
76296;SDS011;65104;52.994;6.552;2023-06-22T08:46:00;7.65;;;4.55;;
76296;SDS011;65104;52.994;6.552;2023-06-22T08:48:27;6.32;;;4.57;;
76296;SDS011;65104;52.994;6.552;2023-06-22T08:50:53;7.18;;;5.43;;
76296;SDS011;65104;52.994;6.552;2023-06-22T08:53:18;7.85;;;5.07;;
76296;SDS011;65104;52.994;6.552;2023-06-22T08:55:44;7.38;;;4.35;;
76296;SDS011;65104;52.994;6.552;2023-06-22T08:58:10;7.20;;;4.35;;
76296;SDS011;65104;52.994;6.552;2023-06-22T09:00:35;7.93;;;5.05;;
76296;SDS011;65104;52.994;6.552;2023-06-22T09:03:01;7.05;;;4.40;;
76296;SDS011;65104;52.994;6.552;2023-06-22T09:05:26;7.40;;;4.95;;
76296;SDS011;65104;52.994;6.552;2023-06-22T09:07:52;6.80;;;4.32;;
76296;SDS011;65104;52.994;6.552;2023-06-22T09:10:19;6.47;;;4.53;;
76296;SDS011;65104;52.994;6.552;2023-06-22T09:12:45;8.57;;;4.40;;
76296;SDS011;65104;52.994;6.552;2023-06-22T09:15:10;5.38;;;4.15;;
76296;SDS011;65104;52.994;6.552;2023-06-22T09:17:36;5.60;;;4.15;;
76296;SDS011;65104;52.994;6.552;2023-06-22T09:20:02;6.57;;;5.00;;
76296;SDS011;65104;52.994;6.552;2023-06-22T09:22:30;6.13;;;4.60;;
76296;SDS011;65104;52.994;6.552;2023-06-22T09:24:56;6.78;;;4.60;;
76296;SDS011;65104;52.994;6.552;2023-06-22T09:27:21;6.57;;;4.60;;
76296;SDS011;65104;52.994;6.552;2023-06-22T09:29:47;6.00;;;4.05;;
76296;SDS011;65104;52.994;6.552;2023-06-22T09:32:13;7.03;;;4.53;;
76296;SDS011;65104;52.994;6.552;2023-06-22T09:34:38;6.03;;;4.65;;
76296;SDS011;65104;52.994;6.552;2023-06-22T09:37:04;7.45;;;4.82;;
76296;SDS011;65104;52.994;6.552;2023-06-22T09:39:29;6.07;;;4.70;;
76296;SDS011;65104;52.994;6.552;2023-06-22T09:41:55;5.15;;;4.00;;
76296;SDS011;65104;52.994;6.552;2023-06-22T09:44:20;6.72;;;4.82;;
76296;SDS011;65104;52.994;6.552;2023-06-22T09:46:45;6.68;;;4.45;;
76296;SDS011;65104;52.994;6.552;2023-06-22T09:49:11;6.03;;;4.55;;
76296;SDS011;65104;52.994;6.552;2023-06-22T09:51:36;6.95;;;4.47;;
76296;SDS011;65104;52.994;6.552;2023-06-22T09:54:02;5.00;;;4.30;;
76296;SDS011;65104;52.994;6.552;2023-06-22T09:56:27;6.80;;;4.15;;
76296;SDS011;65104;52.994;6.552;2023-06-22T09:58:54;6.75;;;4.88;;
76296;SDS011;65104;52.994;6.552;2023-06-22T10:01:19;6.05;;;4.47;;
76296;SDS011;65104;52.994;6.552;2023-06-22T10:03:45;6.57;;;4.15;;
76296;SDS011;65104;52.994;6.552;2023-06-22T10:06:11;9.32;;;4.68;;
76296;SDS011;65104;52.994;6.552;2023-06-22T10:08:36;5.88;;;4.47;;
76296;SDS011;65104;52.994;6.552;2023-06-22T10:11:02;7.95;;;4.20;;
76296;SDS011;65104;52.994;6.552;2023-06-22T10:13:28;5.30;;;4.18;;
76296;SDS011;65104;52.994;6.552;2023-06-22T10:15:54;5.97;;;3.70;;
76296;SDS011;65104;52.994;6.552;2023-06-22T10:18:19;5.63;;;3.88;;
76296;SDS011;65104;52.994;6.552;2023-06-22T10:20:47;6.05;;;3.92;;
76296;SDS011;65104;52.994;6.552;2023-06-22T10:23:15;5.00;;;3.90;;
76296;SDS011;65104;52.994;6.552;2023-06-22T10:25:40;6.85;;;4.18;;
76296;SDS011;65104;52.994;6.552;2023-06-22T10:28:06;5.70;;;4.15;;
76296;SDS011;65104;52.994;6.552;2023-06-22T10:30:32;5.43;;;3.42;;
76296;SDS011;65104;52.994;6.552;2023-06-22T10:32:57;5.90;;;4.20;;
76296;SDS011;65104;52.994;6.552;2023-06-22T10:35:23;6.15;;;4.35;;
76296;SDS011;65104;52.994;6.552;2023-06-22T10:37:48;4.65;;;3.80;;
76296;SDS011;65104;52.994;6.552;2023-06-22T10:40:14;6.53;;;4.30;;
76296;SDS011;65104;52.994;6.552;2023-06-22T10:42:41;4.75;;;3.45;;
76296;SDS011;65104;52.994;6.552;2023-06-22T10:45:07;5.43;;;3.38;;
76296;SDS011;65104;52.994;6.552;2023-06-22T10:47:33;4.70;;;3.35;;
76296;SDS011;65104;52.994;6.552;2023-06-22T10:49:59;4.38;;;3.55;;
76296;SDS011;65104;52.994;6.552;2023-06-22T10:52:25;5.07;;;3.15;;
76296;SDS011;65104;52.994;6.552;2023-06-22T10:54:50;3.45;;;2.75;;
76296;SDS011;65104;52.994;6.552;2023-06-22T10:57:15;4.57;;;2.92;;
76296;SDS011;65104;52.994;6.552;2023-06-22T10:59:41;7.32;;;3.97;;
76296;SDS011;65104;52.994;6.552;2023-06-22T11:02:06;5.57;;;3.58;;
76296;SDS011;65104;52.994;6.552;2023-06-22T11:04:32;5.28;;;3.60;;
76296;SDS011;65104;52.994;6.552;2023-06-22T11:06:57;4.15;;;3.22;;
76296;SDS011;65104;52.994;6.552;2023-06-22T11:09:22;4.32;;;3.00;;
76296;SDS011;65104;52.994;6.552;2023-06-22T11:11:49;4.75;;;2.90;;
76296;SDS011;65104;52.994;6.552;2023-06-22T11:14:15;6.30;;;3.00;;
76296;SDS011;65104;52.994;6.552;2023-06-22T11:16:41;4.38;;;3.35;;
76296;SDS011;65104;52.994;6.552;2023-06-22T11:19:06;4.55;;;2.95;;
76296;SDS011;65104;52.994;6.552;2023-06-22T11:21:32;5.38;;;3.15;;
76296;SDS011;65104;52.994;6.552;2023-06-22T11:23:58;4.63;;;3.15;;
76296;SDS011;65104;52.994;6.552;2023-06-22T11:26:24;3.83;;;3.22;;
76296;SDS011;65104;52.994;6.552;2023-06-22T11:28:50;4.43;;;3.00;;
76296;SDS011;65104;52.994;6.552;2023-06-22T11:31:15;4.30;;;3.55;;
76296;SDS011;65104;52.994;6.552;2023-06-22T11:33:40;3.20;;;2.90;;
76296;SDS011;65104;52.994;6.552;2023-06-22T11:36:06;4.85;;;3.55;;
76296;SDS011;65104;52.994;6.552;2023-06-22T11:38:31;5.95;;;3.80;;
76296;SDS011;65104;52.994;6.552;2023-06-22T11:40:58;4.45;;;3.40;;
76296;SDS011;65104;52.994;6.552;2023-06-22T11:43:24;4.53;;;3.03;;
76296;SDS011;65104;52.994;6.552;2023-06-22T11:45:49;4.47;;;2.85;;
76296;SDS011;65104;52.994;6.552;2023-06-22T11:48:15;3.15;;;2.60;;
76296;SDS011;65104;52.994;6.552;2023-06-22T11:50:41;5.10;;;3.20;;
76296;SDS011;65104;52.994;6.552;2023-06-22T11:53:06;3.75;;;3.33;;
76296;SDS011;65104;52.994;6.552;2023-06-22T11:55:31;4.65;;;3.50;;
76296;SDS011;65104;52.994;6.552;2023-06-22T11:57:57;5.95;;;3.55;;
76296;SDS011;65104;52.994;6.552;2023-06-22T12:00:28;4.35;;;3.65;;
76296;SDS011;65104;52.994;6.552;2023-06-22T12:02:54;5.72;;;3.33;;
76296;SDS011;65104;52.994;6.552;2023-06-22T12:05:21;4.75;;;3.60;;
76296;SDS011;65104;52.994;6.552;2023-06-22T12:07:47;5.00;;;3.38;;
76296;SDS011;65104;52.994;6.552;2023-06-22T12:10:13;6.55;;;3.67;;
76296;SDS011;65104;52.994;6.552;2023-06-22T12:12:39;5.22;;;3.88;;
76296;SDS011;65104;52.994;6.552;2023-06-22T12:15:04;4.68;;;3.28;;
76296;SDS011;65104;52.994;6.552;2023-06-22T12:17:30;4.75;;;3.47;;
76296;SDS011;65104;52.994;6.552;2023-06-22T12:19:56;4.43;;;3.03;;
76296;SDS011;65104;52.994;6.552;2023-06-22T12:22:21;4.20;;;3.10;;
76296;SDS011;65104;52.994;6.552;2023-06-22T12:24:47;4.07;;;2.97;;
76296;SDS011;65104;52.994;6.552;2023-06-22T12:27:12;4.80;;;2.95;;
76296;SDS011;65104;52.994;6.552;2023-06-22T12:29:38;4.38;;;3.42;;
76296;SDS011;65104;52.994;6.552;2023-06-22T12:32:03;4.05;;;3.53;;
76296;SDS011;65104;52.994;6.552;2023-06-22T12:34:29;5.78;;;3.78;;
76296;SDS011;65104;52.994;6.552;2023-06-22T12:36:54;4.93;;;3.08;;
76296;SDS011;65104;52.994;6.552;2023-06-22T12:39:20;4.38;;;3.20;;
76296;SDS011;65104;52.994;6.552;2023-06-22T12:41:45;5.90;;;3.15;;
76296;SDS011;65104;52.994;6.552;2023-06-22T12:44:11;4.70;;;3.33;;
76296;SDS011;65104;52.994;6.552;2023-06-22T12:46:36;5.72;;;3.55;;
76296;SDS011;65104;52.994;6.552;2023-06-22T12:56:19;5.03;;;3.67;;
76296;SDS011;65104;52.994;6.552;2023-06-22T12:58:45;5.70;;;3.95;;
76296;SDS011;65104;52.994;6.552;2023-06-22T13:01:10;4.40;;;3.42;;
76296;SDS011;65104;52.994;6.552;2023-06-22T13:03:35;4.63;;;3.50;;
76296;SDS011;65104;52.994;6.552;2023-06-22T13:06:01;4.75;;;3.92;;
76296;SDS011;65104;52.994;6.552;2023-06-22T13:08:27;3.88;;;3.20;;
76296;SDS011;65104;52.994;6.552;2023-06-22T13:10:52;3.88;;;3.33;;
76296;SDS011;65104;52.994;6.552;2023-06-22T13:13:18;7.20;;;4.00;;
76296;SDS011;65104;52.994;6.552;2023-06-22T13:15:43;5.32;;;3.67;;
76296;SDS011;65104;52.994;6.552;2023-06-22T13:18:08;4.80;;;3.53;;
76296;SDS011;65104;52.994;6.552;2023-06-22T13:20:34;3.80;;;3.03;;
76296;SDS011;65104;52.994;6.552;2023-06-22T13:22:59;5.63;;;3.88;;
76296;SDS011;65104;52.994;6.552;2023-06-22T13:25:24;4.47;;;3.70;;
76296;SDS011;65104;52.994;6.552;2023-06-22T13:32:42;5.90;;;3.83;;
76296;SDS011;65104;52.994;6.552;2023-06-22T13:35:08;5.15;;;3.90;;
76296;SDS011;65104;52.994;6.552;2023-06-22T13:37:36;4.50;;;3.60;;
76296;SDS011;65104;52.994;6.552;2023-06-22T13:40:02;6.10;;;4.60;;
76296;SDS011;65104;52.994;6.552;2023-06-22T13:42:31;5.60;;;4.53;;
76296;SDS011;65104;52.994;6.552;2023-06-22T13:44:56;7.18;;;4.80;;
76296;SDS011;65104;52.994;6.552;2023-06-22T13:47:22;6.50;;;4.70;;
76296;SDS011;65104;52.994;6.552;2023-06-22T13:49:47;5.82;;;4.53;;
76296;SDS011;65104;52.994;6.552;2023-06-22T13:52:13;5.68;;;4.00;;
76296;SDS011;65104;52.994;6.552;2023-06-22T13:54:38;6.35;;;4.53;;
76296;SDS011;65104;52.994;6.552;2023-06-22T13:57:04;6.22;;;4.28;;
76296;SDS011;65104;52.994;6.552;2023-06-22T13:59:29;4.78;;;3.67;;
76296;SDS011;65104;52.994;6.552;2023-06-22T14:01:55;6.15;;;4.57;;
76296;SDS011;65104;52.994;6.552;2023-06-22T14:04:21;8.35;;;4.20;;
76296;SDS011;65104;52.994;6.552;2023-06-22T14:06:48;5.32;;;3.47;;
76296;SDS011;65104;52.994;6.552;2023-06-22T14:09:13;7.93;;;4.85;;
76296;SDS011;65104;52.994;6.552;2023-06-22T14:11:39;8.35;;;4.53;;
76296;SDS011;65104;52.994;6.552;2023-06-22T14:14:04;7.50;;;5.15;;
76296;SDS011;65104;52.994;6.552;2023-06-22T14:16:30;7.05;;;5.35;;
76296;SDS011;65104;52.994;6.552;2023-06-22T14:18:55;6.28;;;4.65;;
76296;SDS011;65104;52.994;6.552;2023-06-22T14:21:21;9.13;;;5.30;;
76296;SDS011;65104;52.994;6.552;2023-06-22T14:23:46;7.18;;;5.32;;
76296;SDS011;65104;52.994;6.552;2023-06-22T14:26:14;10.43;;;4.97;;
76296;SDS011;65104;52.994;6.552;2023-06-22T14:28:42;7.07;;;4.93;;
76296;SDS011;65104;52.994;6.552;2023-06-22T14:31:12;7.25;;;5.15;;
76296;SDS011;65104;52.994;6.552;2023-06-22T14:36:04;6.93;;;3.93;;
76296;SDS011;65104;52.994;6.552;2023-06-22T14:38:29;5.65;;;4.40;;
76296;SDS011;65104;52.994;6.552;2023-06-22T14:40:55;8.73;;;5.40;;
76296;SDS011;65104;52.994;6.552;2023-06-22T14:43:20;5.70;;;4.07;;
76296;SDS011;65104;52.994;6.552;2023-06-22T14:45:45;6.20;;;4.18;;
76296;SDS011;65104;52.994;6.552;2023-06-22T14:48:11;6.40;;;4.32;;
76296;SDS011;65104;52.994;6.552;2023-06-22T14:50:36;5.45;;;3.88;;
76296;SDS011;65104;52.994;6.552;2023-06-22T14:53:02;5.30;;;3.60;;
76296;SDS011;65104;52.994;6.552;2023-06-22T14:55:27;5.00;;;3.35;;
76296;SDS011;65104;52.994;6.552;2023-06-22T14:57:52;5.30;;;3.72;;